createdAt,value
2023-04-11T00:00:29.850Z,7.47
2023-04-11T00:03:00.077Z,6.40
2023-04-11T00:05:28.153Z,6.67
2023-04-11T00:07:54.607Z,7.30
2023-04-11T00:10:21.075Z,6.50
2023-04-11T00:12:47.487Z,7.17
2023-04-11T00:15:16.165Z,6.80
2023-04-11T00:17:45.738Z,6.93
2023-04-11T00:20:12.939Z,7.20
2023-04-11T00:22:39.558Z,6.70
2023-04-11T00:25:07.049Z,7.10
2023-04-11T00:27:33.452Z,6.77
2023-04-11T00:29:59.903Z,7.00
2023-04-11T00:32:26.407Z,6.87
2023-04-11T00:34:52.929Z,6.70
2023-04-11T00:37:21.487Z,7.00
2023-04-11T00:39:53.186Z,7.07
2023-04-11T00:42:20.060Z,7.37
2023-04-11T00:44:46.564Z,7.27
2023-04-11T00:47:13.712Z,7.57
2023-04-11T00:49:41.419Z,6.97
2023-04-11T00:52:08.241Z,7.37
2023-04-11T00:54:35.519Z,7.63
2023-04-11T00:57:04.120Z,7.10
2023-04-11T00:59:32.401Z,7.53
2023-04-11T01:02:00.051Z,7.57
2023-04-11T01:04:26.842Z,7.67
2023-04-11T01:07:03.862Z,7.20
2023-04-11T01:12:21.452Z,7.07
2023-04-11T01:14:48.193Z,7.07
2023-04-11T01:17:15.949Z,8.27
2023-04-11T01:19:42.638Z,7.77
2023-04-11T01:22:11.455Z,7.90
2023-04-11T01:24:37.915Z,7.57
2023-04-11T01:27:04.868Z,8.50
2023-04-11T01:29:31.697Z,7.70
2023-04-11T01:31:58.361Z,7.93
2023-04-11T01:34:28.590Z,8.33
2023-04-11T01:36:55.466Z,7.90
2023-04-11T01:39:21.895Z,8.33
2023-04-11T01:41:50.996Z,7.93
2023-04-11T01:44:19.257Z,8.03
2023-04-11T01:46:46.719Z,8.20
2023-04-11T01:49:19.135Z,8.23
2023-04-11T01:51:45.967Z,7.90
2023-04-11T01:54:12.573Z,8.20
2023-04-11T01:56:39.017Z,8.70
2023-04-11T01:59:05.387Z,9.30
2023-04-11T02:01:32.474Z,8.73
2023-04-11T02:03:59.000Z,8.87
2023-04-11T02:06:27.408Z,9.57
2023-04-11T02:08:54.548Z,9.07
2023-04-11T02:11:21.320Z,9.07
2023-04-11T02:13:47.869Z,8.50
2023-04-11T02:16:18.387Z,9.00
2023-04-11T02:18:45.875Z,8.53
2023-04-11T02:21:12.888Z,8.90
2023-04-11T02:23:39.304Z,9.10
2023-04-11T02:26:05.729Z,9.13
2023-04-11T02:28:32.224Z,8.90
2023-04-11T02:30:59.637Z,8.93
2023-04-11T02:33:26.195Z,9.80
2023-04-11T02:35:52.624Z,9.13
2023-04-11T02:38:19.023Z,8.30
2023-04-11T02:40:45.621Z,9.70
2023-04-11T02:43:12.415Z,9.20
2023-04-11T02:45:38.947Z,9.33
2023-04-11T02:48:05.758Z,9.13
2023-04-11T02:50:32.135Z,9.10
2023-04-11T02:52:58.601Z,8.80
2023-04-11T02:55:25.917Z,8.73
2023-04-11T02:57:52.404Z,9.30
2023-04-11T03:00:20.110Z,10.00
2023-04-11T03:02:46.584Z,9.43
2023-04-11T03:05:13.395Z,9.17
2023-04-11T03:07:40.563Z,9.57
2023-04-11T03:10:08.042Z,9.77
2023-04-11T03:12:34.430Z,10.17
2023-04-11T03:15:00.876Z,10.00
2023-04-11T03:17:27.331Z,9.77
2023-04-11T03:19:53.718Z,10.13
2023-04-11T03:22:20.154Z,9.57
2023-04-11T03:24:46.960Z,10.20
2023-04-11T03:27:13.616Z,10.23
2023-04-11T03:29:39.998Z,10.63
2023-04-11T03:32:06.501Z,10.70
2023-04-11T03:34:33.029Z,10.77
2023-04-11T03:36:59.457Z,10.17
2023-04-11T03:39:25.859Z,10.70
2023-04-11T03:41:52.941Z,11.23
2023-04-11T03:44:19.368Z,11.33
2023-04-11T03:46:46.007Z,10.90
2023-04-11T03:49:12.447Z,10.70
2023-04-11T03:51:38.853Z,11.60
2023-04-11T03:54:05.282Z,11.47
2023-04-11T03:56:31.679Z,11.77
2023-04-11T03:58:58.136Z,12.20
2023-04-11T04:01:24.721Z,11.37
2023-04-11T04:03:51.421Z,11.33
2023-04-11T04:06:18.266Z,11.97
2023-04-11T04:08:44.857Z,13.43
2023-04-11T04:11:11.227Z,12.50
2023-04-11T04:13:37.660Z,12.87
2023-04-11T04:16:04.562Z,12.87
2023-04-11T04:18:31.007Z,12.90
2023-04-11T04:20:57.551Z,12.63
2023-04-11T04:23:23.996Z,12.77
2023-04-11T04:25:51.036Z,13.07
2023-04-11T04:28:20.659Z,12.87
2023-04-11T04:30:50.291Z,13.17
2023-04-11T04:33:18.656Z,13.43
2023-04-11T04:35:45.113Z,13.57
2023-04-11T04:38:17.605Z,13.37
2023-04-11T04:40:44.310Z,13.60
2023-04-11T04:43:18.998Z,13.67
2023-04-11T04:45:45.545Z,13.40
2023-04-11T04:48:13.959Z,13.40
2023-04-11T04:50:40.524Z,13.60
2023-04-11T04:53:07.286Z,14.53
2023-04-11T04:55:34.404Z,13.83
2023-04-11T04:58:01.548Z,13.70
2023-04-11T05:00:27.991Z,13.63
2023-04-11T05:02:57.763Z,13.30
2023-04-11T05:05:24.434Z,13.50
2023-04-11T05:07:51.991Z,14.57
2023-04-11T05:10:18.478Z,14.50
2023-04-11T05:12:44.875Z,14.20
2023-04-11T05:15:11.773Z,14.33
2023-04-11T05:17:38.942Z,15.03
2023-04-11T05:20:08.054Z,16.20
2023-04-11T05:22:35.056Z,14.13
2023-04-11T05:25:02.418Z,15.00
2023-04-11T05:27:29.196Z,15.27
2023-04-11T05:29:55.558Z,15.00
2023-04-11T05:32:22.090Z,14.80
2023-04-11T05:34:55.203Z,14.27
2023-04-11T05:37:23.319Z,13.70
2023-04-11T05:39:49.789Z,14.90
2023-04-11T05:42:18.033Z,15.27
2023-04-11T05:44:44.741Z,14.40
2023-04-11T05:47:12.166Z,15.00
2023-04-11T05:49:38.580Z,16.20
2023-04-11T05:52:05.071Z,15.10
2023-04-11T05:54:33.898Z,15.20
2023-04-11T05:57:01.932Z,16.53
2023-04-11T05:59:31.854Z,14.73
2023-04-11T06:01:58.991Z,15.80
2023-04-11T06:04:26.032Z,14.77
2023-04-11T06:06:53.442Z,14.60
2023-04-11T06:09:19.893Z,15.50
2023-04-11T06:11:46.359Z,16.37
2023-04-11T06:14:13.137Z,14.90
2023-04-11T06:16:39.705Z,15.93
2023-04-11T06:19:06.086Z,13.93
2023-04-11T06:21:32.494Z,14.87
2023-04-11T06:24:05.656Z,16.87
2023-04-11T06:26:32.067Z,15.50
2023-04-11T06:28:58.954Z,16.93
2023-04-11T06:31:26.142Z,15.60
2023-04-11T06:33:52.720Z,16.30
2023-04-11T06:36:19.147Z,16.47
2023-04-11T06:38:46.387Z,15.50
2023-04-11T06:41:12.803Z,15.77
2023-04-11T06:43:39.458Z,15.83
2023-04-11T06:46:08.055Z,16.77
2023-04-11T06:48:35.016Z,15.83
2023-04-11T06:51:01.446Z,15.53
2023-04-11T06:53:27.846Z,15.60
2023-04-11T06:55:54.360Z,16.83
2023-04-11T06:58:20.917Z,15.27
2023-04-11T07:00:47.326Z,16.20
2023-04-11T07:03:14.018Z,16.47
2023-04-11T07:05:40.487Z,15.50
2023-04-11T07:08:07.011Z,16.13
2023-04-11T07:10:33.423Z,16.73
2023-04-11T07:12:59.792Z,16.53
2023-04-11T07:15:26.249Z,15.80
2023-04-11T07:17:52.988Z,15.13
2023-04-11T07:20:19.933Z,14.80
2023-04-11T07:22:46.302Z,14.40
2023-04-11T07:25:13.492Z,14.43
2023-04-11T07:27:43.905Z,14.13
2023-04-11T07:30:10.827Z,13.53
2023-04-11T07:32:37.270Z,14.00
2023-04-11T07:35:04.148Z,16.87
2023-04-11T07:37:30.927Z,16.17
2023-04-11T07:39:57.308Z,14.93
2023-04-11T07:42:23.664Z,17.60
2023-04-11T07:44:50.117Z,17.77
2023-04-11T07:47:16.668Z,15.53
2023-04-11T07:49:43.070Z,16.33
2023-04-11T07:52:09.825Z,13.70
2023-04-11T07:54:37.632Z,9.30
2023-04-11T07:57:04.043Z,8.23
2023-04-11T07:59:30.438Z,5.67
2023-04-11T08:02:01.246Z,3.77
2023-04-11T08:04:32.657Z,3.00
2023-04-11T08:06:59.484Z,2.73
2023-04-11T08:09:27.994Z,2.57
2023-04-11T08:11:54.893Z,1.80
2023-04-11T08:14:21.631Z,1.57
2023-04-11T08:16:48.022Z,1.53
2023-04-11T08:19:14.531Z,1.30
2023-04-11T08:21:41.236Z,1.10
2023-04-11T08:24:08.452Z,1.07
2023-04-11T08:26:34.931Z,1.00
2023-04-11T08:29:02.016Z,1.00
2023-04-11T08:31:28.554Z,1.10
2023-04-11T08:33:57.741Z,1.10
2023-04-11T08:36:27.296Z,0.97
2023-04-11T08:38:55.261Z,1.03
2023-04-11T08:41:21.650Z,1.10
2023-04-11T08:43:48.854Z,0.90
2023-04-11T08:46:16.322Z,1.07
2023-04-11T08:48:42.733Z,0.90
2023-04-11T08:51:09.186Z,1.00
2023-04-11T08:53:37.902Z,0.87
2023-04-11T08:56:04.456Z,0.90
2023-04-11T08:58:32.784Z,1.20
2023-04-11T09:01:28.656Z,1.00
2023-04-11T09:03:55.943Z,1.10
2023-04-11T09:06:22.783Z,1.00
2023-04-11T09:08:49.440Z,1.00
2023-04-11T09:11:17.010Z,1.17
2023-04-11T09:13:43.988Z,1.10
2023-04-11T09:16:12.364Z,1.10
2023-04-11T09:18:43.886Z,1.00
2023-04-11T09:21:13.884Z,1.10
2023-04-11T09:23:41.171Z,1.10
2023-04-11T09:26:09.605Z,1.30
2023-04-11T09:28:44.150Z,1.13
2023-04-11T09:31:13.262Z,1.27
2023-04-11T09:33:53.352Z,1.10
2023-04-11T09:36:22.331Z,1.10
2023-04-11T09:38:48.887Z,1.07
2023-04-11T09:41:16.190Z,1.30
2023-04-11T09:43:52.396Z,0.90
2023-04-11T09:46:21.237Z,1.00
2023-04-11T09:48:49.509Z,1.07
2023-04-11T09:51:28.186Z,0.97
2023-04-11T09:54:03.604Z,0.80
2023-04-11T09:56:30.876Z,0.80
2023-04-11T09:58:59.853Z,1.03
2023-04-11T10:01:26.275Z,0.87
2023-04-11T10:03:54.058Z,1.10
2023-04-11T10:06:45.587Z,0.97
2023-04-11T10:09:14.098Z,1.07
2023-04-11T10:11:45.049Z,1.00
2023-04-11T10:14:36.478Z,0.90
2023-04-11T10:17:14.016Z,0.90
2023-04-11T10:19:40.529Z,0.80
2023-04-11T10:22:07.637Z,0.90
2023-04-11T10:24:34.007Z,0.90
2023-04-11T10:27:06.189Z,1.00
2023-04-11T10:29:40.530Z,0.90
2023-04-11T10:32:19.005Z,1.07
2023-04-11T10:34:54.875Z,1.00
2023-04-11T10:37:41.699Z,0.80
2023-04-11T10:40:12.001Z,0.97
2023-04-11T10:42:43.386Z,0.90
2023-04-11T10:45:30.241Z,0.90
2023-04-11T10:47:56.815Z,0.70
2023-04-11T10:50:26.395Z,0.90
2023-04-11T10:52:54.334Z,0.83
2023-04-11T10:55:21.434Z,0.83
2023-04-11T10:58:09.655Z,0.80
2023-04-11T11:00:54.602Z,0.70
2023-04-11T11:03:26.328Z,0.80
2023-04-11T11:05:59.938Z,0.70
2023-04-11T11:08:27.519Z,1.20
2023-04-11T11:10:54.410Z,0.87
2023-04-11T11:13:21.697Z,0.70
2023-04-11T11:15:49.466Z,0.70
2023-04-11T11:18:16.677Z,0.70
2023-04-11T11:20:43.391Z,0.70
2023-04-11T11:23:11.570Z,0.90
2023-04-11T11:25:38.132Z,0.80
2023-04-11T11:28:09.214Z,0.90
2023-04-11T11:30:36.989Z,0.80
2023-04-11T11:33:20.221Z,0.90
2023-04-11T11:35:58.389Z,0.97
2023-04-11T11:38:27.783Z,1.00
2023-04-11T11:40:55.475Z,0.83
2023-04-11T11:43:22.004Z,1.20
2023-04-11T11:46:10.910Z,1.00
2023-04-11T11:48:37.478Z,1.30
2023-04-11T11:51:04.076Z,1.00
2023-04-11T11:53:30.496Z,1.10
2023-04-11T11:55:57.682Z,1.27
2023-04-11T11:58:25.385Z,1.00
2023-04-11T12:00:52.794Z,1.20
2023-04-11T12:03:29.606Z,1.10
2023-04-11T12:05:58.148Z,1.17
2023-04-11T12:08:24.803Z,1.10
2023-04-11T12:10:51.519Z,1.20
2023-04-11T12:13:23.688Z,1.13
2023-04-11T12:15:52.156Z,1.03
2023-04-11T12:18:23.774Z,1.07
2023-04-11T12:20:51.260Z,1.10
2023-04-11T12:23:18.257Z,1.10
2023-04-11T12:25:45.846Z,1.20
2023-04-11T12:28:12.439Z,1.00
2023-04-11T12:30:38.884Z,1.00
2023-04-11T12:33:06.204Z,1.40
2023-04-11T12:35:33.038Z,1.20
2023-04-11T12:37:59.455Z,1.43
2023-04-11T12:40:26.149Z,1.20
2023-04-11T12:42:56.298Z,1.20
2023-04-11T12:45:24.159Z,1.43
2023-04-11T12:47:50.898Z,1.10
2023-04-11T12:50:17.950Z,1.10
2023-04-11T12:52:44.423Z,1.03
2023-04-11T12:55:10.939Z,0.93
2023-04-11T12:57:37.429Z,1.23
2023-04-11T13:00:07.417Z,0.90
2023-04-11T13:02:42.244Z,0.70
2023-04-11T13:05:13.890Z,0.70
2023-04-11T13:07:40.859Z,0.73
2023-04-11T13:10:08.121Z,0.77
2023-04-11T13:12:39.677Z,0.90
2023-04-11T13:15:07.761Z,0.80
2023-04-11T13:17:34.190Z,0.60
2023-04-11T13:20:00.628Z,0.80
2023-04-11T13:22:27.150Z,0.90
2023-04-11T13:24:53.528Z,0.80
2023-04-11T13:27:20.152Z,0.80
2023-04-11T13:29:46.542Z,0.80
2023-04-11T13:32:12.932Z,0.70
2023-04-11T13:34:39.308Z,0.90
2023-04-11T13:37:05.761Z,0.70
2023-04-11T13:39:32.216Z,0.90
2023-04-11T13:41:58.739Z,0.80
2023-04-11T13:44:25.227Z,0.90
2023-04-11T13:46:51.605Z,0.90
2023-04-11T13:49:18.009Z,1.00
2023-04-11T13:51:45.013Z,0.90
2023-04-11T13:54:11.636Z,1.20
2023-04-11T13:56:38.466Z,1.10
2023-04-11T13:59:04.864Z,0.90
2023-04-11T14:01:31.527Z,1.00
2023-04-11T14:03:58.196Z,1.20
2023-04-11T14:06:24.837Z,1.20
2023-04-11T14:08:51.911Z,1.23
2023-04-11T14:11:18.313Z,0.87
2023-04-11T14:13:44.733Z,0.97
2023-04-11T14:16:11.113Z,1.00
2023-04-11T14:18:37.837Z,1.00
2023-04-11T14:21:08.057Z,1.00
2023-04-11T14:23:34.585Z,1.03
2023-04-11T14:26:01.202Z,1.10
2023-04-11T14:28:27.983Z,1.00
2023-04-11T14:30:55.965Z,0.93
2023-04-11T14:33:22.985Z,1.00
2023-04-11T14:35:50.680Z,0.90
2023-04-11T14:38:17.069Z,1.03
2023-04-11T14:40:44.251Z,0.80
2023-04-11T14:43:11.232Z,1.30
2023-04-11T14:45:37.749Z,0.90
2023-04-11T14:48:04.620Z,1.07
2023-04-11T14:50:31.231Z,0.93
2023-04-11T14:52:57.689Z,0.90
2023-04-11T14:55:24.193Z,1.00
2023-04-11T14:57:56.180Z,1.10
2023-04-11T15:00:24.622Z,1.07
2023-04-11T15:02:56.286Z,0.97
2023-04-11T15:05:24.466Z,0.93
2023-04-11T15:07:52.697Z,1.10
2023-04-11T15:10:21.092Z,1.10
2023-04-11T15:12:47.661Z,1.23
2023-04-11T15:15:14.517Z,1.07
2023-04-11T15:17:46.840Z,1.10
2023-04-11T15:20:17.210Z,1.10
2023-04-11T15:22:45.472Z,1.10
2023-04-11T15:25:14.025Z,1.10
2023-04-11T15:27:41.293Z,1.30
2023-04-11T15:30:08.698Z,1.17
2023-04-11T15:32:35.272Z,1.23
2023-04-11T15:35:02.317Z,1.33
2023-04-11T15:37:29.031Z,1.20
2023-04-11T15:39:55.947Z,1.10
2023-04-11T15:42:22.376Z,1.10
2023-04-11T15:44:48.794Z,1.03
2023-04-11T15:47:16.470Z,1.07
2023-04-11T15:49:43.071Z,0.73
2023-04-11T15:52:09.442Z,1.10
2023-04-11T15:54:36.181Z,0.80
2023-04-11T15:57:03.618Z,0.97
2023-04-11T15:59:30.842Z,0.80
2023-04-11T16:01:57.368Z,0.70
2023-04-11T16:04:24.040Z,0.70
2023-04-11T16:06:50.879Z,1.10
2023-04-11T16:09:17.639Z,0.70
2023-04-11T16:11:44.004Z,1.30
2023-04-11T16:14:11.094Z,0.60
2023-04-11T16:16:37.578Z,1.00
2023-04-11T16:19:04.447Z,0.90
2023-04-11T16:21:31.373Z,0.80
2023-04-11T16:23:58.145Z,0.90
2023-04-11T16:26:24.730Z,0.87
2023-04-11T16:28:51.375Z,1.10
2023-04-11T16:31:22.166Z,1.00
2023-04-11T16:33:48.626Z,0.70
2023-04-11T16:36:15.553Z,1.00
2023-04-11T16:38:42.036Z,0.97
2023-04-11T16:41:08.421Z,0.90
2023-04-11T16:43:34.815Z,0.77
2023-04-11T16:46:01.387Z,1.00
2023-04-11T16:48:27.971Z,0.90
2023-04-11T16:50:54.339Z,0.90
2023-04-11T16:53:20.724Z,1.00
2023-04-11T16:55:47.075Z,1.00
2023-04-11T16:58:13.447Z,0.87
2023-04-11T17:00:40.418Z,0.77
2023-04-11T17:03:07.218Z,1.27
2023-04-11T17:05:38.060Z,1.00
2023-04-11T17:08:05.483Z,1.00
2023-04-11T17:10:31.891Z,1.03
2023-04-11T17:12:58.402Z,0.90
2023-04-11T17:15:25.227Z,1.07
2023-04-11T17:17:51.590Z,1.00
2023-04-11T17:20:18.344Z,0.93
2023-04-11T17:22:44.981Z,1.00
2023-04-11T17:25:11.888Z,1.00
2023-04-11T17:27:38.869Z,1.00
2023-04-11T17:30:05.980Z,0.93
2023-04-11T17:32:32.556Z,1.17
2023-04-11T17:34:59.191Z,0.93
2023-04-11T17:37:26.603Z,1.00
2023-04-11T17:39:53.280Z,1.10
2023-04-11T17:42:19.786Z,1.20
2023-04-11T17:44:46.725Z,1.10
2023-04-11T17:47:13.091Z,1.20
2023-04-11T17:49:39.463Z,1.30
2023-04-11T17:52:06.088Z,1.30
2023-04-11T17:54:32.460Z,1.20
2023-04-11T17:56:59.092Z,1.40
2023-04-11T17:59:25.724Z,1.00
2023-04-11T18:01:53.471Z,1.20
2023-04-11T18:04:20.161Z,1.10
2023-04-11T18:06:47.660Z,1.30
2023-04-11T18:09:15.824Z,1.40
2023-04-11T18:11:44.061Z,1.20
2023-04-11T18:14:10.746Z,0.90
2023-04-11T18:16:38.965Z,1.50
2023-04-11T18:19:05.436Z,1.37
2023-04-11T18:21:31.875Z,1.40
2023-04-11T18:23:58.508Z,1.53
2023-04-11T18:26:25.079Z,1.23
2023-04-11T18:28:51.457Z,1.57
2023-04-11T18:31:18.142Z,1.30
2023-04-11T18:33:47.242Z,1.47
2023-04-11T18:36:14.442Z,1.27
2023-04-11T18:38:41.309Z,1.33
2023-04-11T18:41:08.291Z,1.90
2023-04-11T18:43:35.610Z,1.80
2023-04-11T18:46:02.612Z,1.90
2023-04-11T18:48:29.276Z,1.80
2023-04-11T18:51:03.483Z,1.90
2023-04-11T18:53:30.798Z,1.93
2023-04-11T18:55:58.044Z,2.27
2023-04-11T18:58:26.020Z,2.53
2023-04-11T19:00:53.198Z,2.03
2023-04-11T19:03:19.790Z,2.10
2023-04-11T19:05:47.162Z,1.53
2023-04-11T19:08:13.644Z,2.43
2023-04-11T19:10:40.035Z,2.33
2023-04-11T19:13:06.533Z,2.07
2023-04-11T19:15:33.003Z,2.17
2023-04-11T19:17:59.806Z,2.50
2023-04-11T19:20:26.667Z,2.90
2023-04-11T19:22:53.141Z,2.63
2023-04-11T19:25:19.669Z,2.57
2023-04-11T19:27:47.034Z,2.63
2023-04-11T19:30:13.848Z,2.77
2023-04-11T19:32:43.715Z,3.53
2023-04-11T19:35:11.514Z,2.80
2023-04-11T19:37:38.350Z,2.70
2023-04-11T19:40:15.342Z,2.20
2023-04-11T19:42:42.251Z,2.40
2023-04-11T19:45:10.041Z,2.40
2023-04-11T19:47:36.884Z,2.43
2023-04-11T19:50:03.536Z,3.23
2023-04-11T19:52:30.239Z,4.10
2023-04-11T19:54:56.785Z,5.13
2023-04-11T19:57:27.173Z,5.90
2023-04-11T19:59:53.572Z,5.27
2023-04-11T20:02:20.216Z,4.67
2023-04-11T20:04:46.807Z,4.30
2023-04-11T20:07:13.466Z,3.90
2023-04-11T20:09:39.860Z,3.37
2023-04-11T20:12:06.993Z,3.77
2023-04-11T20:14:33.932Z,3.50
2023-04-11T20:17:01.252Z,3.77
2023-04-11T20:19:29.431Z,3.83
2023-04-11T20:21:56.017Z,3.60
2023-04-11T20:24:22.411Z,4.10
2023-04-11T20:26:48.816Z,4.40
2023-04-11T20:29:17.934Z,5.40
2023-04-11T20:31:44.698Z,6.20
2023-04-11T20:34:11.521Z,7.50
2023-04-11T20:36:38.130Z,7.37
2023-04-11T20:39:05.448Z,6.90
2023-04-11T20:41:32.314Z,6.27
2023-04-11T20:43:59.489Z,6.07
2023-04-11T20:46:29.544Z,5.20
2023-04-11T20:48:56.064Z,5.13
2023-04-11T20:51:22.461Z,4.30
2023-04-11T20:53:48.868Z,4.30
2023-04-11T20:56:15.515Z,3.50
2023-04-11T20:58:41.977Z,3.20
2023-04-11T21:01:08.351Z,3.03
2023-04-11T21:03:37.956Z,2.80
2023-04-11T21:06:07.268Z,2.67
2023-04-11T21:08:37.839Z,3.50
2023-04-11T21:11:05.583Z,4.80
2023-04-11T21:13:32.053Z,4.13
2023-04-11T21:15:58.802Z,4.43
2023-04-11T21:18:25.547Z,4.03
2023-04-11T21:20:52.055Z,4.30
2023-04-11T21:23:18.566Z,4.30
2023-04-11T21:25:44.932Z,4.10
2023-04-11T21:28:11.302Z,4.13
2023-04-11T21:30:39.354Z,4.20
2023-04-11T21:33:06.156Z,3.80
2023-04-11T21:35:32.691Z,3.57
2023-04-11T21:37:59.312Z,3.70
2023-04-11T21:40:25.772Z,4.07
2023-04-11T21:42:53.273Z,3.97
2023-04-11T21:45:19.626Z,3.83
2023-04-11T21:47:46.775Z,4.00
2023-04-11T21:50:13.295Z,3.73
2023-04-11T21:52:39.772Z,3.93
2023-04-11T21:55:09.089Z,3.70
2023-04-11T21:57:35.958Z,4.00
2023-04-11T22:00:02.590Z,4.30
2023-04-11T22:02:29.137Z,3.90
2023-04-11T22:07:31.660Z,4.30
2023-04-11T22:10:09.540Z,3.83
2023-04-11T22:12:36.676Z,3.83
2023-04-11T22:15:03.961Z,4.20
2023-04-11T22:17:31.566Z,3.50
2023-04-11T22:20:01.144Z,3.27
2023-04-11T22:22:30.413Z,3.40
2023-04-11T22:25:00.002Z,3.60
2023-04-11T22:27:27.214Z,3.57
2023-04-11T22:29:57.470Z,3.20
2023-04-11T22:32:23.940Z,3.33
2023-04-11T22:34:51.087Z,3.53
2023-04-11T22:37:17.513Z,3.53
2023-04-11T22:39:43.903Z,3.30
2023-04-11T22:42:11.476Z,3.20
2023-04-11T22:44:38.213Z,3.10
2023-04-11T22:47:07.007Z,3.20
2023-04-11T22:49:41.085Z,3.03
2023-04-11T22:52:14.362Z,2.90
2023-04-11T22:54:42.872Z,3.23
2023-04-11T22:57:09.625Z,2.97
2023-04-11T22:59:37.371Z,2.83
2023-04-11T23:02:03.957Z,3.03
2023-04-11T23:04:32.076Z,2.97
2023-04-11T23:06:58.983Z,3.40
2023-04-11T23:09:25.617Z,3.73
2023-04-11T23:11:52.156Z,3.50
2023-04-11T23:14:21.396Z,3.20
2023-04-11T23:16:47.969Z,3.37
2023-04-11T23:19:14.764Z,3.47
2023-04-11T23:21:41.125Z,3.33
2023-04-11T23:24:07.573Z,3.13
2023-04-11T23:26:33.975Z,3.17
2023-04-11T23:29:02.769Z,3.27
2023-04-11T23:31:30.423Z,3.23
2023-04-11T23:33:57.976Z,3.50
2023-04-11T23:36:24.558Z,3.43
2023-04-11T23:38:51.368Z,3.27
2023-04-11T23:41:18.677Z,3.07
2023-04-11T23:43:45.436Z,2.93
2023-04-11T23:46:13.152Z,3.27
2023-04-11T23:48:39.574Z,2.87
2023-04-11T23:51:06.512Z,2.87
2023-04-11T23:53:32.908Z,2.77
2023-04-11T23:55:59.376Z,2.57
2023-04-11T23:58:25.844Z,3.07
